sensor_id;sensor_type;location;lat;lon;timestamp;pressure;altitude;pressure_sealevel;temperature;humidity
60214;BME280;46080;46.904;19.688;2022-09-09T00:00:24;99870.91;;;20.69;100.00
60214;BME280;46080;46.904;19.688;2022-09-09T00:02:58;99867.53;;;20.78;100.00
60214;BME280;46080;46.904;19.688;2022-09-09T00:11:12;99857.63;;;20.84;100.00
60214;BME280;46080;46.904;19.688;2022-09-09T00:13:46;99851.88;;;20.81;100.00
60214;BME280;46080;46.904;19.688;2022-09-09T00:16:27;99846.75;;;20.67;100.00
60214;BME280;46080;46.904;19.688;2022-09-09T00:24:52;99850.22;;;20.51;100.00
60214;BME280;46080;46.904;19.688;2022-09-09T00:30:47;99829.97;;;20.53;100.00
60214;BME280;46080;46.904;19.688;2022-09-09T00:32:46;99824.09;;;20.45;100.00
60214;BME280;46080;46.904;19.688;2022-09-09T00:37:53;99860.06;;;20.57;100.00
60214;BME280;46080;46.904;19.688;2022-09-09T00:40:34;99864.53;;;20.63;100.00
60214;BME280;46080;46.904;19.688;2022-09-09T00:43:26;99867.63;;;20.67;100.00
60214;BME280;46080;46.904;19.688;2022-09-09T00:46:16;99869.13;;;20.63;100.00
60214;BME280;46080;46.904;19.688;2022-09-09T00:56:33;99872.31;;;20.59;100.00
60214;BME280;46080;46.904;19.688;2022-09-09T01:01:33;99859.44;;;20.38;100.00
60214;BME280;46080;46.904;19.688;2022-09-09T01:04:04;99870.53;;;20.36;100.00
60214;BME280;46080;46.904;19.688;2022-09-09T01:06:37;99877.00;;;20.35;100.00
60214;BME280;46080;46.904;19.688;2022-09-09T01:09:30;99884.22;;;20.30;100.00
60214;BME280;46080;46.904;19.688;2022-09-09T01:12:23;99884.69;;;20.27;100.00
60214;BME280;46080;46.904;19.688;2022-09-09T01:14:58;99893.28;;;20.23;100.00
60214;BME280;46080;46.904;19.688;2022-09-09T01:17:35;99893.16;;;20.18;100.00
60214;BME280;46080;46.904;19.688;2022-09-09T01:20:24;99893.31;;;20.12;100.00
60214;BME280;46080;46.904;19.688;2022-09-09T01:23:24;99899.66;;;20.05;100.00
60214;BME280;46080;46.904;19.688;2022-09-09T01:28:55;99883.22;;;19.95;100.00
60214;BME280;46080;46.904;19.688;2022-09-09T01:31:30;99884.75;;;19.91;100.00
60214;BME280;46080;46.904;19.688;2022-09-09T01:33:58;99898.16;;;19.86;100.00
60214;BME280;46080;46.904;19.688;2022-09-09T01:37:12;99901.56;;;19.81;100.00
60214;BME280;46080;46.904;19.688;2022-09-09T01:39:19;99889.47;;;19.72;100.00
60214;BME280;46080;46.904;19.688;2022-09-09T01:41:53;99894.25;;;19.70;100.00
60214;BME280;46080;46.904;19.688;2022-09-09T01:44:19;99894.16;;;19.65;100.00
60214;BME280;46080;46.904;19.688;2022-09-09T01:46:46;99895.69;;;19.61;100.00
60214;BME280;46080;46.904;19.688;2022-09-09T01:49:16;99891.69;;;19.63;100.00
60214;BME280;46080;46.904;19.688;2022-09-09T01:51:43;99893.91;;;19.66;100.00
60214;BME280;46080;46.904;19.688;2022-09-09T01:54:12;99895.34;;;19.69;100.00
60214;BME280;46080;46.904;19.688;2022-09-09T01:57:06;99898.72;;;19.76;100.00
60214;BME280;46080;46.904;19.688;2022-09-09T02:00:06;99890.97;;;19.68;100.00
60214;BME280;46080;46.904;19.688;2022-09-09T02:03:11;99900.63;;;19.76;100.00
60214;BME280;46080;46.904;19.688;2022-09-09T02:06:05;99890.63;;;19.76;100.00
60214;BME280;46080;46.904;19.688;2022-09-09T02:08:50;99892.41;;;19.82;100.00
60214;BME280;46080;46.904;19.688;2022-09-09T02:11:19;99890.28;;;19.84;100.00
60214;BME280;46080;46.904;19.688;2022-09-09T02:14:09;99890.84;;;19.75;100.00
60214;BME280;46080;46.904;19.688;2022-09-09T02:16:52;99886.84;;;19.65;100.00
60214;BME280;46080;46.904;19.688;2022-09-09T02:19:32;99888.50;;;19.55;100.00
60214;BME280;46080;46.904;19.688;2022-09-09T02:22:12;99894.16;;;19.53;100.00
60214;BME280;46080;46.904;19.688;2022-09-09T02:24:39;99905.78;;;19.65;100.00
